Fremont, MI

11:36 PM EST on February 21, 2018 (GMT -0500)
Fremont

Weather History for KFFX - November, 2012

Change the Weather History Date:

Saturday, November 24, 2012

  Actual Average (KMKG) Record (KMKG)
Temperature  
Mean Temperature 30 °F -  
Max Temperature 31 °F 41 °F 62 °F (2001)
Min Temperature 28 °F 29 °F -8 °F (1950)
Degree Days  
Heating Degree Days 36    
Moisture  
Dew Point 19 °F    
Average Humidity 64    
Maximum Humidity 73    
Minimum Humidity 57    
Precipitation  
Precipitation 0.00 in - - ()
Sea Level Pressure  
Sea Level Pressure 30.08 in    
Wind  
Wind Speed 10 mph (WNW)    
Max Wind Speed 16 mph    
Max Gust Speed 22 mph    
Visibility 10 miles    
Events      
Averages and records for this station are not official NWS values.
T = Trace of Precipitation, MM = Missing Value Source: NWS Daily Summary

Daily Weather History Graph

Daily Weather History Graph

Search for Another Location

Airport or City:

Trip Planner

Search our weather history database for the weather conditions in past years. The results will help you decide how hot, cold, wet, or windy it might be!

Date:

Astronomy

Nov. 24, 2012 Rise Set
Actual Time 7:49 AM EST 5:11 PM EST
Civil Twilight 7:17 AM EST 5:43 PM EST
Nautical Twilight 6:42 AM EST 6:18 PM EST
Astronomical Twilight 6:08 AM EST 6:52 PM EST
Moon 3:00 PM EST (11/24) 4:00 AM EST (11/24)
Length of Visible Light 10h 25m
Length of Day
9h 22m
Waxing Gibbous, 87% of the Moon is Illuminated
Nov 24
Waxing Gibbous
Nov 28
Full
Dec 6
Last Quarter
Dec 13
New
Dec 20
First Quarter

Hourly Weather History & Observations

Time (EST) Temp. Windchill Dew Point Humidity Pressure Visibility Wind Dir Wind Speed Gust Speed Precip Events Conditions
12:14 AM 30.9 °F 19.8 °F 20.3 °F 65% 30.06 in 10.0 mi West 16.1 mph 21.9 mph N/A   Overcast
12:35 AM 30.7 °F 21.4 °F 20.7 °F 66% 30.06 in 10.0 mi WNW 11.5 mph - N/A   Overcast
1:14 AM 30.6 °F 21.8 °F 20.7 °F 67% 30.06 in 10.0 mi West 10.4 mph - N/A   Overcast
1:34 AM 30.2 °F 21.9 °F 21.0 °F 69% 30.06 in 10.0 mi West 9.2 mph 17.3 mph N/A   Overcast
1:55 AM 30.2 °F 19.8 °F 21.0 °F 69% 30.06 in 10.0 mi WNW 13.8 mph 17.3 mph N/A   Overcast
2:14 AM 30.2 °F 20.2 °F 21.2 °F 69% 30.06 in 10.0 mi WNW 12.7 mph 17.3 mph N/A   Overcast
2:34 AM 30.2 °F 20.2 °F 20.3 °F 67% 30.07 in 10.0 mi WNW 12.7 mph 17.3 mph N/A   Overcast
2:54 AM 30.2 °F 20.8 °F 19.8 °F 65% 30.07 in 10.0 mi WNW 11.5 mph 18.4 mph N/A   Overcast
3:14 AM 30.2 °F 20.2 °F 19.8 °F 65% 30.08 in 10.0 mi WNW 12.7 mph 16.1 mph N/A   Overcast
3:34 AM 30.2 °F 21.3 °F 19.6 °F 65% 30.08 in 10.0 mi WNW 10.4 mph - N/A   Overcast
3:55 AM 30.2 °F 20.2 °F 19.2 °F 64% 30.08 in 10.0 mi WNW 12.7 mph 17.3 mph N/A   Overcast
4:14 AM 30.2 °F 20.8 °F 19.0 °F 63% 30.08 in 10.0 mi WNW 11.5 mph 17.3 mph N/A   Overcast
4:34 AM 30.2 °F 21.3 °F 18.5 °F 62% 30.08 in 10.0 mi WNW 10.4 mph 16.1 mph N/A   Overcast
4:54 AM 30.0 °F 21.7 °F 18.3 °F 62% 30.09 in 10.0 mi WNW 9.2 mph 20.7 mph N/A   Overcast
5:14 AM 29.8 °F 20.3 °F 18.9 °F 64% 30.09 in 10.0 mi West 11.5 mph 17.3 mph N/A   Overcast
5:34 AM 29.8 °F 22.2 °F 18.9 °F 64% 30.10 in 10.0 mi West 8.1 mph - N/A   Overcast
5:54 AM 29.8 °F 21.5 °F 18.7 °F 63% 30.10 in 10.0 mi WNW 9.2 mph - N/A   Overcast
6:15 AM 29.8 °F 20.3 °F 19.2 °F 65% 30.10 in 10.0 mi WNW 11.5 mph 18.4 mph N/A   Overcast
6:34 AM 29.7 °F 20.1 °F 18.9 °F 64% 30.10 in 10.0 mi WNW 11.5 mph - N/A   Overcast
6:55 AM 29.8 °F 19.8 °F 18.5 °F 63% 30.11 in 10.0 mi WNW 12.7 mph 17.3 mph N/A   Overcast
7:14 AM 29.7 °F 19.1 °F 18.1 °F 62% 30.11 in 10.0 mi NW 13.8 mph 19.6 mph N/A   Overcast
7:34 AM 29.3 °F 20.8 °F 17.6 °F 62% 30.11 in 10.0 mi NW 9.2 mph 20.7 mph N/A   Overcast
7:54 AM 29.3 °F 19.1 °F 17.2 °F 61% 30.12 in 10.0 mi WNW 12.7 mph - N/A   Overcast
8:14 AM 29.3 °F 20.2 °F 17.6 °F 62% 30.12 in 10.0 mi NW 10.4 mph - N/A   Overcast
8:34 AM 29.3 °F 19.1 °F 18.9 °F 65% 30.13 in 10.0 mi WNW 12.7 mph - N/A   Overcast
8:54 AM 29.3 °F 20.2 °F 19.8 °F 68% 30.13 in 10.0 mi WNW 10.4 mph - N/A   Overcast
9:14 AM 29.3 °F 19.6 °F 19.6 °F 67% 30.13 in 10.0 mi NW 11.5 mph 19.6 mph N/A   Overcast
9:34 AM 29.7 °F 19.6 °F 17.6 °F 61% 30.13 in 10.0 mi WNW 12.7 mph 17.3 mph N/A   Overcast
9:54 AM 29.8 °F 20.3 °F 17.2 °F 59% 30.14 in 10.0 mi NW 11.5 mph 20.7 mph N/A   Overcast
10:14 AM 29.8 °F 20.9 °F 16.9 °F 59% 30.14 in 10.0 mi NW 10.4 mph 15.0 mph N/A   Overcast
10:34 AM 30.0 °F 21.7 °F 17.4 °F 59% 30.15 in 10.0 mi NW 9.2 mph - N/A   Overcast
10:54 AM 30.2 °F 19.8 °F 16.7 °F 57% 30.15 in 10.0 mi NW 13.8 mph 17.3 mph N/A   Overcast
11:14 AM 30.2 °F 20.2 °F 17.2 °F 59% 30.15 in 10.0 mi WNW 12.7 mph 19.6 mph N/A   Overcast
11:35 AM 30.6 °F 19.8 °F 17.4 °F 58% 30.14 in 10.0 mi NW 15.0 mph - N/A   Overcast
11:54 AM 30.6 °F 20.7 °F 17.4 °F 58% 30.14 in 10.0 mi NW 12.7 mph 18.4 mph N/A   Overcast
12:14 PM 30.7 °F 20.4 °F 17.6 °F 58% 30.13 in 10.0 mi NW 13.8 mph - N/A   Overcast
12:34 PM 31.1 °F 21.9 °F 18.3 °F 59% 30.12 in 10.0 mi WNW 11.5 mph - N/A   Overcast
12:54 PM 30.7 °F 21.4 °F 18.0 °F 59% 30.11 in 10.0 mi NW 11.5 mph - N/A   Overcast
1:15 PM 30.7 °F 22.0 °F 17.8 °F 59% 30.11 in 10.0 mi WNW 10.4 mph - N/A   Overcast
1:34 PM 30.7 °F 21.4 °F 18.3 °F 60% 30.12 in 10.0 mi WNW 11.5 mph - N/A   Overcast
1:54 PM 30.6 °F 21.8 °F 18.0 °F 60% 30.11 in 10.0 mi WNW 10.4 mph - N/A   Overcast
2:14 PM 30.6 °F 22.4 °F 18.3 °F 60% 30.11 in 10.0 mi West 9.2 mph - N/A   Overcast
2:34 PM 30.2 °F 21.3 °F 18.9 °F 63% 30.11 in 10.0 mi NW 10.4 mph - N/A   Overcast
2:54 PM 30.2 °F 21.3 °F 18.7 °F 62% 30.11 in 10.0 mi WNW 10.4 mph - N/A   Overcast
3:14 PM 30.0 °F 21.7 °F 18.9 °F 63% 30.10 in 10.0 mi WNW 9.2 mph - N/A   Overcast
3:35 PM 30.2 °F 21.9 °F 18.9 °F 63% 30.10 in 10.0 mi West 9.2 mph - N/A   Overcast
3:54 PM 30.0 °F 22.4 °F 18.5 °F 62% 30.10 in 10.0 mi West 8.1 mph - N/A   Overcast
4:14 PM 29.8 °F 22.2 °F 18.5 °F 63% 30.10 in 10.0 mi West 8.1 mph - N/A   Overcast
4:34 PM 29.3 °F 21.5 °F 17.6 °F 62% 30.10 in 10.0 mi WNW 8.1 mph - N/A   Overcast
4:54 PM 29.3 °F 25.6 °F 17.8 °F 62% 30.09 in 10.0 mi WSW 3.5 mph - N/A   Overcast
5:14 PM 29.1 °F 22.1 °F 18.0 °F 63% 30.09 in 10.0 mi WNW 6.9 mph - N/A   Overcast
5:34 PM 29.1 °F 22.1 °F 17.8 °F 63% 30.09 in 10.0 mi West 6.9 mph - N/A   Overcast
5:55 PM 29.1 °F 23.0 °F 17.8 °F 63% 30.09 in 10.0 mi WSW 5.8 mph - N/A   Overcast
6:14 PM 28.8 °F 25.0 °F 17.4 °F 63% 30.08 in 10.0 mi SW 3.5 mph - N/A   Overcast
6:34 PM 28.8 °F 25.0 °F 17.1 °F 62% 30.07 in 10.0 mi WSW 3.5 mph - N/A   Overcast
6:54 PM 28.6 °F 24.8 °F 17.8 °F 64% 30.06 in 10.0 mi SW 3.5 mph - N/A   Overcast
7:15 PM 28.6 °F 24.8 °F 17.2 °F 63% 30.06 in 10.0 mi WSW 3.5 mph - N/A   Overcast
7:34 PM 28.4 °F - 17.8 °F 64% 30.06 in 10.0 mi Calm Calm - N/A   Overcast
7:54 PM 28.4 °F - 18.7 °F 67% 30.05 in 10.0 mi Calm Calm - N/A   Overcast
8:14 PM 28.4 °F 24.6 °F 18.3 °F 66% 30.04 in 10.0 mi South 3.5 mph - N/A   Overcast
8:34 PM 28.8 °F 23.7 °F 18.9 °F 67% 30.03 in 10.0 mi SSW 4.6 mph - N/A   Overcast
8:54 PM 28.4 °F - 19.6 °F 70% 30.02 in 10.0 mi Calm Calm - N/A   Overcast
9:14 PM 28.4 °F - 19.4 °F 69% 30.02 in 10.0 mi Calm Calm - N/A   Overcast
9:34 PM 28.4 °F - 20.1 °F 71% 30.01 in 10.0 mi Calm Calm - N/A   Overcast
9:54 PM 28.4 °F - 20.3 °F 72% 30.01 in 10.0 mi Calm Calm - N/A   Overcast
10:15 PM 28.8 °F 25.0 °F 21.0 °F 73% 30.01 in 10.0 mi South 3.5 mph - N/A   Overcast
10:34 PM 28.6 °F - 21.0 °F 73% 30.00 in 10.0 mi Calm Calm - N/A   Overcast
10:54 PM 28.8 °F - 20.8 °F 72% 30.00 in 10.0 mi Calm Calm - N/A   Overcast
11:14 PM 28.8 °F - 21.2 °F 73% 29.98 in 10.0 mi Calm Calm - N/A   Overcast
11:34 PM 28.8 °F 25.0 °F 21.2 °F 73% 29.97 in 10.0 mi ESE 3.5 mph - N/A   Overcast
11:54 PM 28.9 °F 21.1 °F 21.0 °F 72% 29.95 in 10.0 mi ESE 8.1 mph - N/A   Overcast